createdAt,value
2023-03-05T00:06:52.596Z,98858.19
2023-03-05T00:26:54.055Z,98834.56
2023-03-05T00:46:55.723Z,98814.59
2023-03-05T01:06:57.246Z,98804.06
2023-03-05T01:26:59.022Z,98786.84
2023-03-05T01:47:00.499Z,98779.81
2023-03-05T02:07:02.339Z,98775.69
2023-03-05T02:27:03.806Z,98762.91
2023-03-05T02:47:08.394Z,98765.69
2023-03-05T03:07:10.695Z,98734.59
2023-03-05T03:27:12.212Z,98732.41
2023-03-05T03:47:14.040Z,98726.63
2023-03-05T04:07:15.571Z,98717.75
2023-03-05T04:27:17.047Z,98688.28
2023-03-05T04:47:18.569Z,98692.69
2023-03-05T05:07:20.196Z,98673.97
2023-03-05T05:27:22.087Z,98680.81
2023-03-05T05:47:24.006Z,98688.09
2023-03-05T06:07:25.892Z,98688.38
2023-03-05T06:27:29.152Z,98691.53
2023-03-05T06:47:30.768Z,98683.75
2023-03-05T07:07:32.300Z,98686.22
2023-03-05T07:27:34.288Z,98689.06
2023-03-05T07:47:35.905Z,98687.09
2023-03-05T08:07:38.593Z,98688.97
2023-03-05T08:27:40.514Z,98680.72
2023-03-05T08:47:44.088Z,98681.53
2023-03-05T09:07:45.742Z,98673.25
2023-03-05T09:27:47.378Z,98663.72
2023-03-05T09:47:49.938Z,98655.84
2023-03-05T10:08:09.820Z,98656.84
2023-03-05T10:28:29.729Z,98633.03
2023-03-05T10:48:49.560Z,98615.88
2023-03-05T11:09:10.029Z,98600.66
2023-03-05T11:29:30.016Z,98589.66
2023-03-05T11:49:50.183Z,98575.16
2023-03-05T12:09:52.708Z,98549.81
2023-03-05T12:29:54.648Z,98531.91
2023-03-05T12:49:56.046Z,98517.38
2023-03-05T13:09:57.890Z,98495.94
2023-03-05T13:29:59.297Z,98510.97
2023-03-05T13:50:00.865Z,98514.47
2023-03-05T14:10:02.500Z,98490.53
2023-03-05T14:30:04.057Z,98480.13
2023-03-05T14:50:08.319Z,98459.19
2023-03-05T15:10:09.853Z,98453.59
2023-03-05T15:30:11.353Z,98437.25
2023-03-05T15:50:13.179Z,98438.59
2023-03-05T16:10:17.778Z,98422.59
2023-03-05T16:30:19.303Z,98426.06
2023-03-05T16:50:20.988Z,98417.31
2023-03-05T17:10:22.654Z,98427.56
2023-03-05T17:30:24.134Z,98442.41
2023-03-05T17:50:26.726Z,98433.81
2023-03-05T18:10:28.273Z,98417.16
2023-03-05T18:30:29.930Z,98412.72
2023-03-05T18:50:31.580Z,98420.13
2023-03-05T19:10:33.212Z,98413.38
2023-03-05T19:30:34.804Z,98413.22
2023-03-05T20:32:09.760Z,98389.44
2023-03-05T20:52:14.553Z,98376.28
2023-03-05T21:22:55.677Z,98365.53
2023-03-05T21:42:57.700Z,98346.78
2023-03-05T22:02:59.603Z,98328.78
2023-03-05T22:23:01.690Z,98323.16
2023-03-05T22:43:03.645Z,98312.78
2023-03-05T23:03:05.460Z,98301.22
2023-03-05T23:23:07.382Z,98299.06
2023-03-05T23:43:28.379Z,98280.38
